Time;durP1;ratioP1;P1;durP2;ratioP2;P2;SDS_P1;SDS_P2;PMS_P1;PMS_P2;Temp;Humidity;BMP_temperature;BMP_pressure;BME280_temperature;BME280_humidity;BME280_pressure;Samples;Min_cycle;Max_cycle;Signal;HPM_P1;HPM_P2
2022/08/03 00:01:00;;;;;;;;;;;27.60;50.10;;;;;;4995906;28;20032;-66
2022/08/03 00:03:26;;;;;;;;;;;27.60;50.10;;;;;;5012244;28;20693;-67
2022/08/03 00:05:51;;;;;;;;;;;27.60;50.10;;;;;;5013609;28;19999;-66
2022/08/03 00:08:17;;;;;;;;;;;27.60;50.10;;;;;;5014165;28;19921;-66
2022/08/03 00:10:43;;;;;;;;;;;27.60;50.20;;;;;;5015127;28;19913;-69
2022/08/03 00:13:11;;;;;;;;;;;27.60;50.10;;;;;;5012888;28;19928;-65
2022/08/03 00:15:37;;;;;;;;;;;27.60;50.20;;;;;;5009910;28;20008;-66
2022/08/03 00:18:03;;;;;;;;;;;27.60;50.10;;;;;;5013029;28;19928;-67
2022/08/03 00:20:28;;;;;;;;;;;27.60;50.60;;;;;;4996008;28;19925;-68
2022/08/03 00:22:54;;;;;;;;;;;27.60;50.20;;;;;;5014869;28;20437;-66
2022/08/03 00:25:19;;;;;;;;;;;27.60;50.10;;;;;;5014788;28;19920;-69
2022/08/03 00:27:45;;;;;;;;;;;27.50;50.10;;;;;;5015715;28;19917;-67
2022/08/03 00:30:10;;;;;;;;;;;27.60;50.10;;;;;;4995676;28;20361;-67
2022/08/03 00:32:36;;;;;;;;;;;27.50;50.00;;;;;;5012117;28;19913;-66
2022/08/03 00:35:01;;;;;;;;;;;27.50;50.00;;;;;;5011964;28;20297;-66
2022/08/03 00:37:27;;;;;;;;;;;27.50;50.10;;;;;;5010914;28;20323;-68
2022/08/03 00:39:52;;;;;;;;;;;27.50;50.00;;;;;;4995004;28;19917;-66
2022/08/03 00:42:18;;;;;;;;;;;27.50;50.00;;;;;;5009973;28;19979;-68
2022/08/03 00:44:43;;;;;;;;;;;27.50;50.10;;;;;;4996214;28;20312;-66
2022/08/03 00:47:09;;;;;;;;;;;27.50;50.00;;;;;;5013465;28;19913;-66
2022/08/03 00:49:36;;;;;;;;;;;27.50;50.00;;;;;;5009931;28;20495;-68
2022/08/03 00:52:02;;;;;;;;;;;27.50;50.00;;;;;;5013444;28;19925;-67
2022/08/03 00:54:28;;;;;;;;;;;27.50;50.00;;;;;;5012701;28;20001;-68
2022/08/03 00:56:54;;;;;;;;;;;27.50;50.10;;;;;;5012115;28;19925;-66
2022/08/03 00:59:20;;;;;;;;;;;27.50;50.10;;;;;;5014962;28;19928;-66
2022/08/03 01:01:45;;;;;;;;;;;27.50;50.10;;;;;;5009219;28;19921;-67
2022/08/03 01:04:11;;;;;;;;;;;27.50;50.10;;;;;;5011011;28;19941;-66
2022/08/03 01:06:49;;;;;;;;;;;27.50;50.10;;;;;;5012405;28;20004;-65
2022/08/03 01:09:17;;;;;;;;;;;27.50;50.10;;;;;;5010913;28;19913;-67
2022/08/03 01:11:43;;;;;;;;;;;27.40;50.00;;;;;;4995528;28;19920;-66
2022/08/03 01:14:11;;;;;;;;;;;27.40;50.00;;;;;;5016170;28;19916;-66
2022/08/03 01:16:43;;;;;;;;;;;27.40;50.00;;;;;;5012604;28;19990;-66
2022/08/03 01:19:08;;;;;;;;;;;27.40;50.00;;;;;;5014925;28;20023;-68
2022/08/03 01:21:53;;;;;;;;;;;27.40;50.00;;;;;;5013589;28;19956;-66
2022/08/03 01:24:33;;;;;;;;;;;27.40;50.00;;;;;;5014238;28;20011;-68
2022/08/03 01:27:05;;;;;;;;;;;27.40;50.00;;;;;;5014164;28;20803;-67
2022/08/03 01:29:48;;;;;;;;;;;27.40;50.00;;;;;;5015883;28;19917;-67
2022/08/03 01:32:17;;;;;;;;;;;27.40;50.00;;;;;;5014738;28;19983;-66
2022/08/03 01:34:46;;;;;;;;;;;27.40;50.00;;;;;;4996983;28;19917;-68
2022/08/03 01:37:13;;;;;;;;;;;27.40;50.00;;;;;;5016259;28;20257;-66
2022/08/03 01:39:39;;;;;;;;;;;27.40;50.00;;;;;;5016018;28;20008;-65
2022/08/03 01:42:06;;;;;;;;;;;27.40;50.00;;;;;;5013640;28;20009;-66
2022/08/03 01:44:37;;;;;;;;;;;27.40;50.00;;;;;;5016026;28;19913;-66
2022/08/03 01:47:03;;;;;;;;;;;27.40;50.00;;;;;;5016043;28;20075;-67
2022/08/03 01:49:31;;;;;;;;;;;27.30;49.90;;;;;;5015526;28;19971;-69
2022/08/03 01:51:57;;;;;;;;;;;27.40;50.00;;;;;;5015909;28;19921;-65
2022/08/03 01:54:24;;;;;;;;;;;27.40;50.00;;;;;;5016590;28;20482;-66
2022/08/03 01:56:51;;;;;;;;;;;27.40;50.00;;;;;;5014446;28;19929;-66
2022/08/03 01:59:17;;;;;;;;;;;27.30;49.90;;;;;;5017974;28;19957;-67
2022/08/03 02:01:43;;;;;;;;;;;27.30;49.90;;;;;;5012485;28;19932;-66
2022/08/03 02:04:10;;;;;;;;;;;27.30;49.90;;;;;;5014728;28;19921;-66
2022/08/03 02:06:37;;;;;;;;;;;27.30;49.90;;;;;;4997646;28;20432;-66
2022/08/03 02:09:03;;;;;;;;;;;27.30;49.90;;;;;;5015630;28;20388;-66
2022/08/03 02:11:30;;;;;;;;;;;27.30;50.00;;;;;;5014482;28;19945;-68
2022/08/03 02:13:56;;;;;;;;;;;27.30;50.00;;;;;;5015860;28;20320;-68
2022/08/03 02:16:23;;;;;;;;;;;27.30;50.00;;;;;;5014894;28;20020;-66
2022/08/03 02:18:49;;;;;;;;;;;27.30;49.90;;;;;;5016072;28;19951;-66
2022/08/03 02:21:15;;;;;;;;;;;27.30;50.00;;;;;;5013574;28;20043;-66
2022/08/03 02:23:40;;;;;;;;;;;27.30;50.00;;;;;;5010912;28;20368;-69
2022/08/03 02:26:08;;;;;;;;;;;27.30;50.00;;;;;;5016484;28;19994;-66
2022/08/03 02:28:35;;;;;;;;;;;27.30;50.00;;;;;;5015462;28;19971;-66
2022/08/03 02:31:06;;;;;;;;;;;27.30;50.00;;;;;;5014071;28;19975;-66
2022/08/03 02:33:35;;;;;;;;;;;27.30;50.00;;;;;;5013175;28;20636;-66
2022/08/03 02:36:01;;;;;;;;;;;27.30;49.90;;;;;;5014501;28;20373;-67
2022/08/03 02:38:30;;;;;;;;;;;27.20;49.90;;;;;;5002845;28;19924;-66
2022/08/03 02:40:56;;;;;;;;;;;27.20;49.90;;;;;;4990573;28;20375;-66
2022/08/03 02:43:22;;;;;;;;;;;27.20;49.90;;;;;;5015010;28;19921;-66
2022/08/03 02:45:48;;;;;;;;;;;27.20;49.90;;;;;;5013956;28;19963;-66
2022/08/03 02:48:19;;;;;;;;;;;27.20;49.90;;;;;;5013194;28;19975;-68
2022/08/03 02:50:45;;;;;;;;;;;27.20;49.90;;;;;;5014496;28;19949;-66
2022/08/03 02:53:11;;;;;;;;;;;27.20;49.90;;;;;;5013530;28;19925;-68
2022/08/03 02:55:38;;;;;;;;;;;27.20;49.90;;;;;;5016687;28;20734;-66
2022/08/03 02:58:04;;;;;;;;;;;27.20;49.90;;;;;;5014681;28;20352;-66
2022/08/03 03:00:30;;;;;;;;;;;27.20;49.90;;;;;;5014129;28;19964;-68
2022/08/03 03:02:57;;;;;;;;;;;27.20;49.90;;;;;;5012829;28;19972;-69
2022/08/03 03:05:22;;;;;;;;;;;27.20;49.90;;;;;;5012928;28;20113;-66
2022/08/03 03:07:48;;;;;;;;;;;27.20;49.90;;;;;;4995301;28;19994;-67
2022/08/03 03:10:14;;;;;;;;;;;27.20;49.90;;;;;;5017159;28;19952;-66
2022/08/03 03:12:39;;;;;;;;;;;27.20;49.90;;;;;;5013768;28;19921;-67
2022/08/03 03:15:05;;;;;;;;;;;27.20;49.90;;;;;;4997122;28;19924;-66
2022/08/03 03:17:32;;;;;;;;;;;27.10;49.90;;;;;;5013204;28;19925;-66
2022/08/03 03:19:57;;;;;;;;;;;27.10;49.90;;;;;;5011985;28;19917;-66
2022/08/03 03:22:23;;;;;;;;;;;27.10;49.90;;;;;;4995322;28;20708;-68
2022/08/03 03:24:50;;;;;;;;;;;27.10;49.90;;;;;;5012588;28;19955;-67
2022/08/03 03:27:16;;;;;;;;;;;27.10;49.90;;;;;;5012998;28;19952;-66
2022/08/03 03:29:42;;;;;;;;;;;27.10;49.90;;;;;;5014384;28;20014;-66
2022/08/03 03:32:07;;;;;;;;;;;27.10;49.90;;;;;;5013929;28;19924;-66
2022/08/03 03:34:33;;;;;;;;;;;27.10;49.90;;;;;;5013229;28;20052;-69
2022/08/03 03:36:58;;;;;;;;;;;27.10;49.90;;;;;;4995501;28;19932;-66
2022/08/03 03:39:24;;;;;;;;;;;27.10;49.90;;;;;;5013414;28;19913;-67
2022/08/03 03:41:50;;;;;;;;;;;27.10;49.90;;;;;;4997259;28;20001;-67
2022/08/03 03:44:15;;;;;;;;;;;27.10;49.90;;;;;;4997015;28;19920;-67
2022/08/03 03:46:41;;;;;;;;;;;27.10;49.90;;;;;;5012714;28;20359;-67
2022/08/03 03:49:07;;;;;;;;;;;27.10;49.90;;;;;;4988483;28;20055;-69
2022/08/03 03:51:32;;;;;;;;;;;27.10;49.90;;;;;;5011379;28;20479;-66
2022/08/03 03:53:58;;;;;;;;;;;27.10;49.90;;;;;;5014121;28;20071;-68
2022/08/03 03:56:23;;;;;;;;;;;27.10;49.90;;;;;;5013227;28;19921;-68
2022/08/03 03:58:49;;;;;;;;;;;27.10;49.90;;;;;;5012864;28;19924;-67
2022/08/03 04:01:15;;;;;;;;;;;27.10;49.90;;;;;;5010979;28;19947;-66
2022/08/03 04:03:40;;;;;;;;;;;27.10;49.90;;;;;;5012239;28;19918;-66
2022/08/03 04:11:27;;;;;;;;;;;27.00;49.90;;;;;;5013326;28;20356;-68
2022/08/03 04:14:03;;;;;;;;;;;27.00;49.90;;;;;;5012993;28;20527;-66
2022/08/03 04:16:31;;;;;;;;;;;27.00;49.90;;;;;;5013252;28;19928;-67
2022/08/03 04:18:59;;;;;;;;;;;27.00;49.90;;;;;;5012069;28;20313;-66
2022/08/03 04:21:25;;;;;;;;;;;27.00;48.50;;;;;;5012959;28;20411;-67
2022/08/03 04:23:52;;;;;;;;;;;27.00;47.90;;;;;;4995346;28;19916;-69
2022/08/03 04:26:20;;;;;;;;;;;27.00;47.00;;;;;;4995841;28;19917;-68
2022/08/03 04:28:45;;;;;;;;;;;26.90;46.00;;;;;;5009659;28;19952;-66
2022/08/03 04:31:12;;;;;;;;;;;26.80;45.70;;;;;;4996114;28;20102;-67
2022/08/03 04:33:38;;;;;;;;;;;26.80;46.10;;;;;;4997047;28;20008;-68
2022/08/03 04:36:05;;;;;;;;;;;26.70;45.90;;;;;;5010342;28;19921;-66
2022/08/03 04:38:33;;;;;;;;;;;26.70;45.70;;;;;;5011687;28;19917;-66
2022/08/03 04:40:59;;;;;;;;;;;26.70;45.80;;;;;;5013365;28;19924;-67
2022/08/03 04:43:26;;;;;;;;;;;26.60;45.70;;;;;;5012729;28;19913;-66
2022/08/03 04:45:51;;;;;;;;;;;26.60;45.60;;;;;;5012995;28;19921;-66
2022/08/03 04:48:18;;;;;;;;;;;26.60;45.80;;;;;;5012508;28;20633;-69
2022/08/03 04:50:45;;;;;;;;;;;26.50;45.90;;;;;;4995749;28;20309;-67
2022/08/03 04:53:11;;;;;;;;;;;26.50;45.90;;;;;;5012227;28;19923;-67
2022/08/03 04:55:36;;;;;;;;;;;26.40;46.20;;;;;;5010064;28;19916;-66
2022/08/03 04:58:02;;;;;;;;;;;26.40;46.20;;;;;;5015629;28;19957;-67
2022/08/03 05:00:28;;;;;;;;;;;26.40;46.30;;;;;;5011859;28;19932;-67
2022/08/03 05:02:54;;;;;;;;;;;26.40;46.60;;;;;;5008743;28;20351;-69
2022/08/03 05:05:19;;;;;;;;;;;26.30;46.70;;;;;;5008794;28;20037;-69
2022/08/03 05:07:45;;;;;;;;;;;26.20;46.90;;;;;;4989332;28;19917;-68
2022/08/03 05:10:11;;;;;;;;;;;26.20;47.10;;;;;;5009963;28;19925;-66
2022/08/03 05:12:37;;;;;;;;;;;26.20;47.30;;;;;;5013203;28;20019;-66
2022/08/03 05:15:03;;;;;;;;;;;26.10;47.50;;;;;;5010184;28;20360;-67
2022/08/03 05:17:28;;;;;;;;;;;26.10;47.70;;;;;;5011265;28;19925;-67
2022/08/03 05:19:54;;;;;;;;;;;26.20;47.90;;;;;;5011087;28;19968;-66
2022/08/03 05:22:19;;;;;;;;;;;26.20;47.90;;;;;;4992781;28;20639;-67
2022/08/03 05:24:45;;;;;;;;;;;26.20;48.00;;;;;;5011116;28;19970;-69
2022/08/03 05:27:16;;;;;;;;;;;26.20;48.20;;;;;;5011303;28;19920;-66
2022/08/03 05:29:42;;;;;;;;;;;26.10;48.50;;;;;;5010465;28;20020;-66
2022/08/03 05:32:07;;;;;;;;;;;26.00;48.80;;;;;;5012158;28;20004;-66
2022/08/03 05:34:33;;;;;;;;;;;26.10;49.10;;;;;;5014541;28;19921;-65
2022/08/03 05:36:58;;;;;;;;;;;26.00;49.30;;;;;;5009582;28;19951;-66
2022/08/03 05:39:24;;;;;;;;;;;26.00;49.40;;;;;;5012207;28;20275;-68
2022/08/03 05:41:49;;;;;;;;;;;26.00;49.70;;;;;;5012787;28;19912;-68
2022/08/03 05:44:15;;;;;;;;;;;26.00;49.70;;;;;;5011519;28;20331;-65
2022/08/03 05:46:40;;;;;;;;;;;25.90;49.70;;;;;;5010245;28;19920;-68
2022/08/03 05:49:06;;;;;;;;;;;25.90;49.80;;;;;;4991820;28;20387;-68
2022/08/03 05:51:31;;;;;;;;;;;25.90;50.00;;;;;;5010383;28;19920;-67
2022/08/03 05:53:57;;;;;;;;;;;25.90;50.00;;;;;;5011581;28;19963;-66
2022/08/03 05:56:24;;;;;;;;;;;25.90;50.20;;;;;;5011979;28;20000;-67
2022/08/03 05:58:51;;;;;;;;;;;25.90;50.30;;;;;;5014529;28;19925;-68
2022/08/03 06:01:16;;;;;;;;;;;25.80;50.40;;;;;;5014227;28;20363;-67
2022/08/03 06:03:42;;;;;;;;;;;25.80;50.50;;;;;;5016576;28;19942;-67
2022/08/03 06:06:08;;;;;;;;;;;25.80;50.60;;;;;;5013270;28;19997;-67
2022/08/03 06:08:34;;;;;;;;;;;25.80;50.50;;;;;;5012920;28;19921;-66
2022/08/03 06:10:59;;;;;;;;;;;25.80;50.70;;;;;;4998864;28;19982;-68
2022/08/03 06:13:25;;;;;;;;;;;25.70;50.50;;;;;;5014540;28;20400;-68
2022/08/03 06:15:50;;;;;;;;;;;25.70;50.60;;;;;;5011985;28;19916;-68
2022/08/03 06:18:16;;;;;;;;;;;25.70;50.80;;;;;;5010689;28;19945;-66
2022/08/03 06:20:42;;;;;;;;;;;25.70;51.00;;;;;;4997273;28;20239;-66
2022/08/03 06:23:07;;;;;;;;;;;25.60;50.90;;;;;;5011160;28;19921;-66
2022/08/03 06:25:33;;;;;;;;;;;25.60;51.10;;;;;;5014321;28;19920;-66
2022/08/03 06:27:59;;;;;;;;;;;25.60;51.20;;;;;;5009034;28;19994;-67
2022/08/03 06:30:24;;;;;;;;;;;25.60;51.30;;;;;;5006276;28;19931;-66
2022/08/03 06:32:50;;;;;;;;;;;25.50;51.30;;;;;;4994930;28;19928;-68
2022/08/03 06:35:15;;;;;;;;;;;25.50;51.30;;;;;;5012772;28;19932;-66
2022/08/03 06:37:44;;;;;;;;;;;25.50;51.30;;;;;;5011050;28;19936;-69
2022/08/03 06:40:15;;;;;;;;;;;25.50;51.30;;;;;;5012634;28;20299;-66
2022/08/03 06:42:40;;;;;;;;;;;25.50;51.20;;;;;;5015592;28;19929;-67
2022/08/03 06:45:07;;;;;;;;;;;25.50;51.20;;;;;;5013173;28;20405;-66
2022/08/03 06:47:33;;;;;;;;;;;25.50;51.20;;;;;;5014278;28;19913;-68
2022/08/03 06:49:59;;;;;;;;;;;25.50;51.10;;;;;;4998828;28;19913;-66
2022/08/03 06:52:24;;;;;;;;;;;25.50;51.10;;;;;;5013533;28;19928;-68
2022/08/03 06:54:50;;;;;;;;;;;25.50;51.10;;;;;;5015016;28;19920;-66
2022/08/03 06:57:17;;;;;;;;;;;25.50;51.10;;;;;;5016832;28;20380;-67
2022/08/03 06:59:43;;;;;;;;;;;25.50;51.00;;;;;;5012748;28;19997;-67
2022/08/03 07:02:09;;;;;;;;;;;25.50;50.90;;;;;;4994889;28;20294;-67
2022/08/03 07:04:34;;;;;;;;;;;25.60;51.00;;;;;;4993547;28;19966;-68
2022/08/03 07:07:00;;;;;;;;;;;25.50;51.40;;;;;;5013383;28;19921;-68
2022/08/03 07:09:26;;;;;;;;;;;25.50;50.90;;;;;;5013904;28;20396;-68
2022/08/03 07:11:51;;;;;;;;;;;25.60;50.90;;;;;;4996835;28;20414;-67
2022/08/03 07:14:17;;;;;;;;;;;25.60;50.90;;;;;;5015292;28;19921;-67
2022/08/03 07:16:42;;;;;;;;;;;25.60;50.90;;;;;;4994062;28;19989;-66
2022/08/03 07:19:08;;;;;;;;;;;25.60;50.80;;;;;;5012751;28;20004;-65
2022/08/03 07:21:33;;;;;;;;;;;25.60;50.80;;;;;;4991256;28;19953;-67
2022/08/03 07:23:59;;;;;;;;;;;25.60;50.80;;;;;;4985249;28;19921;-66
2022/08/03 07:26:24;;;;;;;;;;;25.50;50.80;;;;;;5010720;28;19914;-68
2022/08/03 07:28:50;;;;;;;;;;;25.60;51.30;;;;;;5012119;28;19917;-66
2022/08/03 07:31:15;;;;;;;;;;;25.60;50.80;;;;;;5002656;28;20364;-66
2022/08/03 07:33:41;;;;;;;;;;;25.60;50.80;;;;;;5010531;28;19917;-65
2022/08/03 07:36:06;;;;;;;;;;;25.60;50.70;;;;;;5012897;28;20288;-66
2022/08/03 07:38:33;;;;;;;;;;;25.60;50.70;;;;;;5012417;28;20008;-66
2022/08/03 07:40:59;;;;;;;;;;;25.60;50.70;;;;;;5014139;28;19921;-68
2022/08/03 07:43:24;;;;;;;;;;;25.60;50.70;;;;;;5012534;28;19921;-67
2022/08/03 07:45:50;;;;;;;;;;;25.60;50.70;;;;;;5010853;28;19924;-66
2022/08/03 07:48:15;;;;;;;;;;;25.60;50.70;;;;;;5010593;28;20015;-65
2022/08/03 07:50:41;;;;;;;;;;;25.60;50.70;;;;;;4996904;28;19917;-66
2022/08/03 07:53:06;;;;;;;;;;;25.60;50.70;;;;;;5010668;28;19925;-66
2022/08/03 07:55:32;;;;;;;;;;;25.60;50.70;;;;;;5013469;28;20424;-66
2022/08/03 07:58:05;;;;;;;;;;;25.60;50.70;;;;;;5011218;28;19925;-66
2022/08/03 08:00:31;;;;;;;;;;;25.60;50.70;;;;;;5009834;28;20246;-66
2022/08/03 08:02:56;;;;;;;;;;;25.60;50.70;;;;;;5009146;28;19924;-67
2022/08/03 08:05:22;;;;;;;;;;;25.60;50.70;;;;;;4993183;28;19913;-67
2022/08/03 08:07:47;;;;;;;;;;;25.60;50.70;;;;;;5005321;28;20124;-66
2022/08/03 08:10:14;;;;;;;;;;;25.70;50.80;;;;;;5012431;28;19917;-66
2022/08/03 08:12:40;;;;;;;;;;;25.60;50.70;;;;;;5008184;28;20351;-66
2022/08/03 08:15:06;;;;;;;;;;;25.70;51.40;;;;;;4993966;28;20014;-67
2022/08/03 08:17:40;;;;;;;;;;;25.70;50.80;;;;;;4990228;28;20436;-66
2022/08/03 08:20:05;;;;;;;;;;;25.70;50.80;;;;;;5009984;28;19970;-66
2022/08/03 08:22:31;;;;;;;;;;;25.60;50.70;;;;;;5007544;28;19917;-66
2022/08/03 08:24:57;;;;;;;;;;;25.70;50.80;;;;;;5003943;28;20503;-66
2022/08/03 08:27:23;;;;;;;;;;;25.70;50.80;;;;;;5005820;28;19917;-68
2022/08/03 08:29:48;;;;;;;;;;;25.70;50.80;;;;;;4987610;28;19921;-67
2022/08/03 08:32:15;;;;;;;;;;;25.70;50.80;;;;;;5007110;28;19917;-68
2022/08/03 08:34:40;;;;;;;;;;;25.70;50.80;;;;;;4991114;28;19917;-68
2022/08/03 08:37:06;;;;;;;;;;;25.70;50.80;;;;;;5010641;28;19924;-66
2022/08/03 08:39:31;;;;;;;;;;;25.70;50.80;;;;;;4995135;28;20385;-66
2022/08/03 08:41:57;;;;;;;;;;;25.70;50.70;;;;;;5006940;28;20012;-68
2022/08/03 08:44:22;;;;;;;;;;;25.70;50.60;;;;;;5009827;28;19967;-67
2022/08/03 08:46:49;;;;;;;;;;;25.70;50.60;;;;;;5009970;28;19917;-66
2022/08/03 08:49:17;;;;;;;;;;;25.70;50.60;;;;;;5007785;28;20027;-68
2022/08/03 08:51:44;;;;;;;;;;;25.70;50.60;;;;;;5009271;28;20213;-67
2022/08/03 08:54:09;;;;;;;;;;;25.70;50.60;;;;;;5007435;28;20009;-68
2022/08/03 08:56:37;;;;;;;;;;;25.70;50.50;;;;;;4994482;28;20008;-68
2022/08/03 08:59:03;;;;;;;;;;;25.70;50.50;;;;;;5009079;28;20495;-68
2022/08/03 09:01:28;;;;;;;;;;;25.70;50.50;;;;;;5006415;28;20110;-66
2022/08/03 09:03:54;;;;;;;;;;;25.70;50.50;;;;;;5011140;28;20091;-66
2022/08/03 09:06:19;;;;;;;;;;;25.80;50.60;;;;;;4984213;28;21461;-66
2022/08/03 09:08:45;;;;;;;;;;;25.80;50.50;;;;;;5008531;28;19918;-68
2022/08/03 09:11:11;;;;;;;;;;;25.80;50.50;;;;;;5012353;28;19978;-67
2022/08/03 09:13:36;;;;;;;;;;;25.80;50.50;;;;;;5012998;28;20424;-67
2022/08/03 09:16:07;;;;;;;;;;;25.80;50.50;;;;;;5008649;28;20009;-65
2022/08/03 09:18:33;;;;;;;;;;;25.80;50.50;;;;;;5011211;28;20396;-66
2022/08/03 09:21:17;;;;;;;;;;;25.80;50.50;;;;;;5009926;28;19913;-66
2022/08/03 09:23:47;;;;;;;;;;;25.80;51.10;;;;;;5002847;28;19953;-68
2022/08/03 09:26:18;;;;;;;;;;;25.80;50.50;;;;;;4995590;28;20379;-68
2022/08/03 09:28:44;;;;;;;;;;;25.80;50.60;;;;;;5009607;28;20430;-67
2022/08/03 09:31:09;;;;;;;;;;;25.80;50.60;;;;;;4980094;28;19925;-68
2022/08/03 09:33:45;;;;;;;;;;;25.80;50.60;;;;;;5010113;28;19945;-67
2022/08/03 09:36:30;;;;;;;;;;;25.80;50.50;;;;;;5013265;28;20507;-66
2022/08/03 09:39:05;;;;;;;;;;;25.80;50.40;;;;;;4992083;28;19913;-68
2022/08/03 09:41:30;;;;;;;;;;;25.80;50.30;;;;;;5012034;28;19928;-66
2022/08/03 09:43:56;;;;;;;;;;;25.90;50.40;;;;;;5011429;28;20063;-68
2022/08/03 09:46:22;;;;;;;;;;;25.80;50.30;;;;;;4994674;28;20386;-69
2022/08/03 09:48:47;;;;;;;;;;;25.90;50.30;;;;;;5012658;28;19917;-66
2022/08/03 09:51:14;;;;;;;;;;;25.90;50.30;;;;;;5012777;28;19935;-69
2022/08/03 09:53:43;;;;;;;;;;;25.90;50.20;;;;;;4994074;28;19990;-68
2022/08/03 09:56:09;;;;;;;;;;;25.90;50.20;;;;;;4994376;28;19921;-67
2022/08/03 09:58:43;;;;;;;;;;;25.90;50.20;;;;;;5012828;28;19929;-66
2022/08/03 10:01:08;;;;;;;;;;;25.90;50.20;;;;;;5009116;28;20012;-68
2022/08/03 10:03:36;;;;;;;;;;;25.90;50.20;;;;;;5007275;28;20290;-65
2022/08/03 10:06:24;;;;;;;;;;;25.90;50.40;;;;;;5012404;28;19923;-66
2022/08/03 10:09:03;;;;;;;;;;;25.90;50.40;;;;;;5010808;28;20003;-68
2022/08/03 10:11:29;;;;;;;;;;;25.90;50.60;;;;;;5012106;28;19917;-67
2022/08/03 10:13:55;;;;;;;;;;;25.90;50.90;;;;;;5010446;28;19917;-66
2022/08/03 10:16:20;;;;;;;;;;;25.90;51.20;;;;;;5012074;28;19920;-67
2022/08/03 10:18:46;;;;;;;;;;;25.90;51.40;;;;;;5013553;28;20435;-67
2022/08/03 10:21:14;;;;;;;;;;;26.00;51.70;;;;;;5010744;28;19952;-67
2022/08/03 10:23:40;;;;;;;;;;;26.00;51.90;;;;;;5006256;28;19921;-68
2022/08/03 10:26:07;;;;;;;;;;;26.00;51.80;;;;;;5011672;28;19917;-67
2022/08/03 10:28:51;;;;;;;;;;;26.00;51.80;;;;;;5008723;28;20333;-67
2022/08/03 10:31:19;;;;;;;;;;;26.00;51.90;;;;;;5008064;28;19922;-68
2022/08/03 10:33:48;;;;;;;;;;;26.00;52.10;;;;;;5010686;28;19918;-67
2022/08/03 10:36:15;;;;;;;;;;;26.00;52.30;;;;;;5013263;28;20020;-65
2022/08/03 10:38:46;;;;;;;;;;;26.10;52.40;;;;;;5013018;28;20809;-66
2022/08/03 10:41:12;;;;;;;;;;;26.00;52.30;;;;;;5013850;28;20313;-67
2022/08/03 10:43:47;;;;;;;;;;;26.10;52.60;;;;;;5010164;28;20276;-65
2022/08/03 10:46:14;;;;;;;;;;;26.10;52.60;;;;;;5014045;28;19917;-66
2022/08/03 10:48:40;;;;;;;;;;;26.10;52.70;;;;;;5011889;28;19928;-69
2022/08/03 10:51:06;;;;;;;;;;;26.10;52.70;;;;;;5011755;28;20289;-69
2022/08/03 10:53:35;;;;;;;;;;;26.10;52.70;;;;;;4992396;28;20254;-67
2022/08/03 10:58:46;;;;;;;;;;;26.10;52.80;;;;;;5003953;28;20498;-66
2022/08/03 11:01:11;;;;;;;;;;;26.10;52.90;;;;;;5008536;28;20681;-66
2022/08/03 11:03:52;;;;;;;;;;;26.20;53.30;;;;;;4981994;28;20018;-65
2022/08/03 11:06:19;;;;;;;;;;;26.20;53.30;;;;;;5010279;28;19971;-68
2022/08/03 11:08:48;;;;;;;;;;;26.20;53.30;;;;;;5005604;28;20197;-66
2022/08/03 11:11:16;;;;;;;;;;;26.20;53.30;;;;;;5007665;28;19917;-68
2022/08/03 11:14:02;;;;;;;;;;;26.20;53.30;;;;;;5012408;28;19975;-68
2022/08/03 11:16:28;;;;;;;;;;;26.20;53.30;;;;;;5009059;28;19927;-69
2022/08/03 11:19:00;;;;;;;;;;;26.20;53.30;;;;;;4997116;28;19925;-66
2022/08/03 11:21:46;;;;;;;;;;;26.20;53.20;;;;;;5012111;28;19971;-66
2022/08/03 11:24:31;;;;;;;;;;;26.20;53.30;;;;;;4995323;28;20392;-66
2022/08/03 11:27:15;;;;;;;;;;;26.20;53.30;;;;;;4995796;28;19925;-66
2022/08/03 11:29:55;;;;;;;;;;;26.30;53.30;;;;;;5013219;28;19952;-67
2022/08/03 11:32:36;;;;;;;;;;;26.30;53.30;;;;;;5006588;28;20292;-66
2022/08/03 11:35:28;;;;;;;;;;;26.20;53.30;;;;;;4990606;28;20431;-66
2022/08/03 11:37:53;;;;;;;;;;;26.30;53.30;;;;;;4995251;28;19922;-66
2022/08/03 11:40:31;;;;;;;;;;;26.30;53.30;;;;;;5009856;28;19917;-68
2022/08/03 11:42:56;;;;;;;;;;;26.30;53.30;;;;;;5009332;28;20350;-66
2022/08/03 11:45:22;;;;;;;;;;;26.30;53.30;;;;;;4990831;28;19913;-67
2022/08/03 11:47:48;;;;;;;;;;;26.30;53.30;;;;;;5008448;28;20007;-66
2022/08/03 11:50:13;;;;;;;;;;;26.30;53.20;;;;;;5006018;28;19984;-70
2022/08/03 11:52:40;;;;;;;;;;;26.30;53.00;;;;;;5002471;28;20024;-69
2022/08/03 11:55:09;;;;;;;;;;;26.40;53.30;;;;;;4992931;28;19917;-71
2022/08/03 11:57:35;;;;;;;;;;;26.30;53.40;;;;;;5007878;28;19967;-70
2022/08/03 12:02:07;;;;;;;;;;;26.40;53.50;;;;;;5051447;27;19928;-69
2022/08/03 12:04:52;;;;;;;;;;;26.40;53.20;;;;;;5033383;28;19986;-69
2022/08/03 12:07:17;;;;;;;;;;;26.50;53.20;;;;;;5020060;28;19914;-68
2022/08/03 12:10:00;;;;;;;;;;;26.50;53.00;;;;;;5019082;28;19937;-69
2022/08/03 12:13:08;;;;;;;1.30;0.90;;;26.50;52.40;;;;;;5054818;27;66102;-68
2022/08/03 12:15:36;;;;;;;0.80;0.80;;;26.60;53.00;;;;;;5061173;28;20035;-69
2022/08/03 12:18:03;;;;;;;2.40;0.75;;;26.60;52.70;;;;;;5057865;28;20104;-67
2022/08/03 12:20:31;;;;;;;0.77;0.70;;;26.60;52.80;;;;;;5058519;28;20021;-67
2022/08/03 12:23:05;;;;;;;1.98;1.00;;;26.60;52.70;;;;;;5056556;28;20124;-68
2022/08/03 12:25:32;;;;;;;0.73;0.73;;;26.60;52.60;;;;;;5058852;28;20491;-68
2022/08/03 12:28:11;;;;;;;0.80;0.80;;;26.70;52.70;;;;;;5056183;28;20033;-68
2022/08/03 12:30:38;;;;;;;0.90;0.70;;;26.70;52.70;;;;;;5059015;28;20470;-68
2022/08/03 12:33:23;;;;;;;0.90;0.70;;;26.60;52.50;;;;;;5056877;28;20041;-68
2022/08/03 12:36:09;;;;;;;0.70;0.70;;;26.60;52.40;;;;;;5054633;28;20040;-68
2022/08/03 12:38:37;;;;;;;1.30;0.70;;;26.70;52.40;;;;;;5056724;28;20103;-69
2022/08/03 12:41:05;;;;;;;1.05;0.70;;;26.70;52.30;;;;;;5058190;28;20483;-68
2022/08/03 12:43:31;;;;;;;2.25;0.70;;;26.70;52.20;;;;;;5057985;28;20029;-68
2022/08/03 12:46:07;;;;;;;0.70;0.70;;;26.70;52.20;;;;;;5057419;28;20036;-66
2022/08/03 12:48:33;;;;;;;0.80;0.70;;;26.70;52.20;;;;;;5056693;28;20514;-69
2022/08/03 12:51:11;;;;;;;0.60;0.60;;;26.70;52.10;;;;;;5056743;28;20033;-69
2022/08/03 12:53:37;;;;;;;0.90;0.80;;;26.70;52.10;;;;;;5056840;28;20484;-67
2022/08/03 12:56:04;;;;;;;1.00;0.80;;;26.70;52.00;;;;;;5056701;28;20021;-69
2022/08/03 12:58:32;;;;;;;0.90;0.70;;;26.70;52.00;;;;;;5056616;28;20056;-68
2022/08/03 13:00:58;;;;;;;0.60;0.60;;;26.70;52.00;;;;;;5057383;28;20545;-68
2022/08/03 13:03:24;;;;;;;0.70;0.70;;;26.70;52.00;;;;;;5056034;28;20061;-69
2022/08/03 13:05:50;;;;;;;0.80;0.80;;;26.70;52.50;;;;;;5057543;28;20096;-67
2022/08/03 13:08:20;;;;;;;1.73;0.85;;;26.80;52.00;;;;;;5055343;28;20037;-68
2022/08/03 13:10:46;;;;;;;0.93;0.83;;;26.80;52.00;;;;;;5056657;28;20031;-66
2022/08/03 13:13:11;;;;;;;1.05;0.80;;;26.70;51.90;;;;;;5056274;28;20108;-67
2022/08/03 13:15:37;;;;;;;0.85;0.80;;;26.80;52.00;;;;;;5056770;28;20108;-67
2022/08/03 13:18:03;;;;;;;1.27;0.85;;;26.80;51.90;;;;;;5056993;28;20029;-68
2022/08/03 13:20:28;;;;;;;1.05;0.85;;;26.70;51.90;;;;;;5055772;28;20473;-69
2022/08/03 13:22:55;;;;;;;0.80;0.80;;;26.80;51.90;;;;;;5052249;28;20490;-68
2022/08/03 13:25:21;;;;;;;0.95;0.80;;;26.70;51.80;;;;;;5041943;28;20030;-68
2022/08/03 13:27:47;;;;;;;0.90;0.80;;;26.70;51.70;;;;;;5042794;28;20144;-67
2022/08/03 13:30:14;;;;;;;0.80;0.80;;;26.80;51.90;;;;;;5041991;28;20438;-67
2022/08/03 13:32:40;;;;;;;1.00;0.90;;;26.80;51.80;;;;;;5043263;28;20036;-67
2022/08/03 13:35:07;;;;;;;1.10;0.80;;;26.80;51.80;;;;;;5042076;28;20103;-68
2022/08/03 13:37:33;;;;;;;0.77;0.75;;;26.80;51.70;;;;;;5040975;28;20120;-68
2022/08/03 13:40:00;;;;;;;0.82;0.70;;;26.80;51.80;;;;;;5041710;28;20025;-67
2022/08/03 13:42:28;;;;;;;0.60;0.60;;;26.80;51.70;;;;;;5042213;28;20119;-69
2022/08/03 13:44:53;;;;;;;0.80;0.80;;;26.80;51.70;;;;;;5042338;28;20041;-69
2022/08/03 13:47:19;;;;;;;0.63;0.63;;;26.80;51.70;;;;;;5041477;28;20039;-68
2022/08/03 13:49:45;;;;;;;1.75;1.27;;;26.80;51.70;;;;;;5042718;28;20522;-68
2022/08/03 13:52:10;;;;;;;0.75;0.75;;;26.80;51.70;;;;;;5041864;28;20065;-68
2022/08/03 13:54:36;;;;;;;0.70;0.70;;;26.80;51.60;;;;;;5042732;28;20329;-69
2022/08/03 13:57:02;;;;;;;0.65;0.63;;;26.80;51.60;;;;;;5041813;28;20032;-68
2022/08/03 13:59:27;;;;;;;0.60;0.60;;;26.80;51.60;;;;;;5043510;28;20028;-68
2022/08/03 14:01:53;;;;;;;0.90;0.75;;;26.80;51.60;;;;;;5041964;28;20037;-68
2022/08/03 14:04:20;;;;;;;0.75;0.70;;;26.80;51.60;;;;;;5043466;28;20107;-68
2022/08/03 14:06:46;;;;;;;1.05;0.80;;;26.80;51.50;;;;;;5040737;28;20037;-69
2022/08/03 14:09:13;;;;;;;1.00;0.70;;;26.80;51.50;;;;;;5042169;28;20033;-68
2022/08/03 14:11:42;;;;;;;0.93;0.70;;;26.80;51.50;;;;;;5043502;28;20056;-68
2022/08/03 14:14:09;;;;;;;1.00;0.80;;;26.80;51.50;;;;;;5041178;28;20480;-68